createdAt,value
2018-05-07T00:02:06.672Z,98626.98
2018-05-07T00:04:35.708Z,98628.61
2018-05-07T00:07:03.956Z,98635.59
2018-05-07T00:09:32.260Z,98632.13
2018-05-07T00:12:00.515Z,98635.10
2018-05-07T00:14:28.790Z,98625.25
2018-05-07T00:16:57.054Z,98629.48
2018-05-07T00:19:26.088Z,98635.48
2018-05-07T00:21:54.359Z,98627.98
2018-05-07T00:24:22.609Z,98632.81
2018-05-07T00:26:50.853Z,98628.09
2018-05-07T00:29:19.124Z,98628.13
2018-05-07T00:31:47.447Z,98626.86
2018-05-07T00:34:15.713Z,98630.69
2018-05-07T00:36:43.980Z,98627.69
2018-05-07T00:39:13.107Z,98631.13
2018-05-07T00:41:41.475Z,98622.16
2018-05-07T00:44:09.751Z,98614.04
2018-05-07T00:46:38.016Z,98620.48
2018-05-07T00:49:06.269Z,98618.39
2018-05-07T00:51:35.285Z,98627.81
2018-05-07T00:54:03.590Z,98626.05
2018-05-07T00:56:31.854Z,98635.02
2018-05-07T00:59:02.125Z,98637.17
2018-05-07T01:01:30.377Z,98637.20
2018-05-07T01:03:58.633Z,98635.49
2018-05-07T01:06:26.897Z,98629.92
2018-05-07T01:08:55.147Z,98629.91
2018-05-07T01:11:24.187Z,98625.59
2018-05-07T01:13:52.453Z,98631.19
2018-05-07T01:16:20.709Z,98641.47
2018-05-07T01:18:48.991Z,98645.81
2018-05-07T01:21:17.245Z,98647.95
2018-05-07T01:23:46.276Z,98642.80
2018-05-07T01:26:14.536Z,98639.38
2018-05-07T01:28:43.032Z,98637.66
2018-05-07T01:31:11.310Z,98635.08
2018-05-07T01:33:39.566Z,98643.20
2018-05-07T01:36:08.601Z,98634.23
2018-05-07T01:38:36.857Z,98635.93
2018-05-07T01:41:05.109Z,98637.23
2018-05-07T01:43:33.384Z,98635.93
2018-05-07T01:46:01.633Z,98636.34
2018-05-07T01:48:29.898Z,98633.34
2018-05-07T01:50:58.153Z,98641.49
2018-05-07T01:53:26.424Z,98634.19
2018-05-07T01:55:54.684Z,98635.48
2018-05-07T01:58:22.937Z,98638.03
2018-05-07T02:00:51.988Z,98635.02
2018-05-07T02:03:20.304Z,98628.17
2018-05-07T02:05:49.324Z,98626.91
2018-05-07T02:08:17.577Z,98627.33
2018-05-07T02:10:46.650Z,98622.61
2018-05-07T02:13:14.909Z,98621.27
2018-05-07T02:15:43.174Z,98622.53
2018-05-07T02:18:11.434Z,98623.34
2018-05-07T02:20:39.797Z,98621.67
2018-05-07T02:23:08.049Z,98625.52
2018-05-07T02:25:37.160Z,98625.86
2018-05-07T02:28:05.406Z,98622.89
2018-05-07T02:30:33.724Z,98621.52
2018-05-07T02:33:01.990Z,98620.28
2018-05-07T02:35:30.296Z,98626.70
2018-05-07T02:37:58.553Z,98619.41
2018-05-07T02:40:26.805Z,98619.81
2018-05-07T02:42:55.841Z,98616.31
2018-05-07T02:45:24.108Z,98615.42
2018-05-07T02:47:52.369Z,98612.04
2018-05-07T02:50:20.644Z,98613.23
2018-05-07T02:52:48.880Z,98616.60
2018-05-07T02:55:17.127Z,98611.08
2018-05-07T02:57:45.389Z,98609.39
2018-05-07T03:00:13.632Z,98610.22
2018-05-07T03:02:41.896Z,98616.63
2018-05-07T03:05:11.027Z,98609.36
2018-05-07T03:07:39.277Z,98607.90
2018-05-07T03:10:07.617Z,98606.64
2018-05-07T03:12:35.866Z,98606.22
2018-05-07T03:15:04.225Z,98601.03
2018-05-07T03:17:32.592Z,98599.66
2018-05-07T03:20:01.496Z,98593.30
2018-05-07T03:22:29.751Z,98596.28
2018-05-07T03:24:58.764Z,98590.28
2018-05-07T03:27:27.040Z,98588.23
2018-05-07T03:29:55.293Z,98587.75
2018-05-07T03:32:24.309Z,98592.44
2018-05-07T03:34:52.565Z,98590.66
2018-05-07T03:37:21.588Z,98587.61
2018-05-07T03:39:49.845Z,98591.31
2018-05-07T03:42:18.081Z,98589.22
2018-05-07T03:44:46.324Z,98585.28
2018-05-07T03:47:14.577Z,98589.22
2018-05-07T03:49:42.824Z,98589.55
2018-05-07T03:52:11.134Z,98582.23
2018-05-07T03:54:39.418Z,98585.28
2018-05-07T03:57:07.681Z,98580.14
2018-05-07T03:59:35.979Z,98575.45
2018-05-07T04:02:04.244Z,98571.16
2018-05-07T04:04:32.510Z,98576.73
2018-05-07T04:07:00.799Z,98569.42
2018-05-07T04:09:29.081Z,98570.28
2018-05-07T04:11:57.331Z,98567.78
2018-05-07T04:14:26.353Z,98562.34
2018-05-07T04:17:11.194Z,98562.77
2018-05-07T04:19:57.397Z,98566.14
2018-05-07T04:22:43.697Z,98568.14
2018-05-07T04:25:11.984Z,98565.66
2018-05-07T04:27:40.258Z,98570.24
2018-05-07T04:30:08.536Z,98568.67
2018-05-07T04:32:36.789Z,98569.95
2018-05-07T04:35:05.810Z,98567.48
2018-05-07T04:37:34.057Z,98567.05
2018-05-07T04:40:03.165Z,98563.73
2018-05-07T04:42:31.417Z,98568.45
2018-05-07T04:44:59.717Z,98568.16
2018-05-07T04:47:28.004Z,98562.66
2018-05-07T04:49:56.328Z,98558.09
2018-05-07T04:52:24.657Z,98561.09
2018-05-07T04:54:52.916Z,98560.75
2018-05-07T04:57:21.169Z,98561.22
2018-05-07T04:59:49.478Z,98557.00
2018-05-07T05:02:17.737Z,98557.04
2018-05-07T05:04:46.760Z,98558.36
2018-05-07T05:07:15.109Z,98562.22
2018-05-07T05:09:43.297Z,98560.12
2018-05-07T05:12:11.592Z,98561.81
2018-05-07T05:14:39.878Z,98561.02
2018-05-07T05:17:08.229Z,98558.44
2018-05-07T05:19:36.496Z,98562.27
2018-05-07T05:22:05.552Z,98555.02
2018-05-07T05:24:34.712Z,98560.60
2018-05-07T05:27:02.957Z,98560.18
2018-05-07T05:29:32.001Z,98557.24
2018-05-07T05:32:00.252Z,98561.94
2018-05-07T05:34:28.517Z,98557.69
2018-05-07T05:36:56.784Z,98556.83
2018-05-07T05:39:25.892Z,98554.24
2018-05-07T05:41:54.172Z,98553.80
2018-05-07T05:44:22.455Z,98557.62
2018-05-07T05:46:50.720Z,98551.63
2018-05-07T05:49:19.001Z,98558.05
2018-05-07T05:51:47.271Z,98551.56
2018-05-07T05:54:15.520Z,98548.48
2018-05-07T05:56:44.556Z,98549.30
2018-05-07T05:59:12.957Z,98550.05
2018-05-07T06:01:41.201Z,98541.80
2018-05-07T06:04:09.475Z,98542.92
2018-05-07T06:06:37.752Z,98542.82
2018-05-07T06:09:06.066Z,98544.02
2018-05-07T06:11:34.294Z,98542.23
2018-05-07T06:14:02.569Z,98536.94
2018-05-07T06:16:31.594Z,98531.74
2018-05-07T06:18:59.856Z,98538.09
2018-05-07T06:21:28.130Z,98539.23
2018-05-07T06:23:56.380Z,98538.99
2018-05-07T06:26:25.506Z,98543.02
2018-05-07T06:28:53.789Z,98538.48
2018-05-07T06:31:22.044Z,98542.99
2018-05-07T06:33:50.285Z,98541.84
2018-05-07T06:36:18.617Z,98542.86
2018-05-07T06:38:46.890Z,98538.25
2018-05-07T06:41:15.159Z,98529.66
2018-05-07T06:43:43.427Z,98531.03
2018-05-07T06:46:11.676Z,98532.47
2018-05-07T06:48:40.703Z,98525.66
2018-05-07T06:51:08.969Z,98525.59
2018-05-07T06:53:37.256Z,98521.36
2018-05-07T06:56:05.504Z,98523.91
2018-05-07T06:58:34.541Z,98524.40
2018-05-07T07:01:02.796Z,98530.17
2018-05-07T07:03:31.839Z,98529.74
2018-05-07T07:06:00.170Z,98526.78
2018-05-07T07:08:28.582Z,98527.23
2018-05-07T07:10:56.696Z,98523.20
2018-05-07T07:13:25.817Z,98516.92
2018-05-07T07:15:54.092Z,98512.08
2018-05-07T07:18:22.408Z,98508.45
2018-05-07T07:20:50.689Z,98513.68
2018-05-07T07:23:18.931Z,98520.20
2018-05-07T07:25:47.205Z,98515.97
2018-05-07T07:28:15.524Z,98518.09
2018-05-07T07:30:43.749Z,98514.63
2018-05-07T07:33:12.033Z,98516.81
2018-05-07T07:35:40.299Z,98511.69
2018-05-07T07:38:08.553Z,98509.82
2018-05-07T07:40:37.582Z,98508.42
2018-05-07T07:43:05.852Z,98508.47
2018-05-07T07:45:34.124Z,98506.39
2018-05-07T07:48:02.381Z,98503.08
2018-05-07T07:50:31.418Z,98499.15
2018-05-07T07:52:59.674Z,98506.71
2018-05-07T07:55:28.131Z,98502.90
2018-05-07T07:57:57.246Z,98504.95
2018-05-07T08:00:25.529Z,98493.39
2018-05-07T08:02:53.779Z,98502.53
2018-05-07T08:05:22.808Z,98506.44
2018-05-07T08:07:51.062Z,98499.12
2018-05-07T08:10:19.425Z,98504.04
2018-05-07T08:12:48.461Z,98503.61
2018-05-07T08:15:16.714Z,98499.12
2018-05-07T08:17:44.980Z,98499.81
2018-05-07T08:20:14.013Z,98494.80
2018-05-07T08:22:42.377Z,98502.35
2018-05-07T08:25:10.658Z,98494.61
2018-05-07T08:27:38.919Z,98497.41
2018-05-07T08:30:07.169Z,98495.72
2018-05-07T08:32:36.189Z,98494.34
2018-05-07T08:35:04.452Z,98492.61
2018-05-07T08:37:33.573Z,98497.78
2018-05-07T08:40:01.852Z,98493.05
2018-05-07T08:42:30.221Z,98487.13
2018-05-07T08:44:58.467Z,98486.24
2018-05-07T08:47:27.585Z,98491.52
2018-05-07T08:49:55.885Z,98487.70
2018-05-07T08:52:24.138Z,98490.73
2018-05-07T08:54:52.425Z,98484.92
2018-05-07T08:57:20.685Z,98479.09
2018-05-07T08:59:48.940Z,98477.92
2018-05-07T09:02:17.347Z,98477.30
2018-05-07T09:04:45.529Z,98470.59
2018-05-07T09:07:13.787Z,98469.69
2018-05-07T09:09:42.814Z,98463.91
2018-05-07T09:12:11.094Z,98462.98
2018-05-07T09:14:39.340Z,98460.06
2018-05-07T09:17:07.596Z,98462.14
2018-05-07T09:19:36.637Z,98456.58
2018-05-07T09:22:04.897Z,98454.45
2018-05-07T09:24:33.153Z,98455.16
2018-05-07T09:27:02.266Z,98445.95
2018-05-07T09:29:30.520Z,98448.41
2018-05-07T09:31:59.550Z,98445.34
2018-05-07T09:34:27.894Z,98440.59
2018-05-07T09:36:56.923Z,98445.34
2018-05-07T09:39:25.169Z,98440.54
2018-05-07T09:41:54.189Z,98442.45
2018-05-07T09:44:22.454Z,98444.78
2018-05-07T09:46:50.741Z,98436.00
2018-05-07T09:49:20.040Z,98438.70
2018-05-07T09:51:48.294Z,98432.64
2018-05-07T09:54:16.573Z,98432.69
2018-05-07T09:56:56.963Z,98429.94
2018-05-07T09:59:25.045Z,98427.03
2018-05-07T10:01:53.440Z,98417.64
2018-05-07T10:04:21.712Z,98421.61
2018-05-07T10:06:49.960Z,98422.09
2018-05-07T10:09:19.449Z,98417.59
2018-05-07T10:11:47.722Z,98411.38
2018-05-07T10:14:15.984Z,98408.97
2018-05-07T10:16:44.993Z,98410.00
2018-05-07T10:19:13.279Z,98398.02
2018-05-07T10:21:41.525Z,98395.98
2018-05-07T10:24:10.605Z,98395.45
2018-05-07T10:26:38.815Z,98394.55
2018-05-07T10:29:07.114Z,98389.53
2018-05-07T10:31:35.367Z,98394.59
2018-05-07T10:34:03.637Z,98388.33
2018-05-07T10:36:31.905Z,98385.78
2018-05-07T10:39:00.918Z,98390.36
2018-05-07T10:41:29.301Z,98390.56
2018-05-07T10:43:57.549Z,98388.01
2018-05-07T10:46:26.682Z,98390.30
2018-05-07T10:48:54.945Z,98379.02
2018-05-07T10:51:23.202Z,98386.36
2018-05-07T10:53:52.313Z,98374.16
2018-05-07T10:56:20.688Z,98375.84
2018-05-07T10:58:48.985Z,98363.11
2018-05-07T11:01:17.240Z,98362.70
2018-05-07T11:03:45.520Z,98366.36
2018-05-07T11:06:13.791Z,98362.36
2018-05-07T11:08:42.075Z,98365.06
2018-05-07T11:11:10.341Z,98359.50
2018-05-07T11:13:38.689Z,98359.89
2018-05-07T11:16:07.680Z,98352.39
2018-05-07T11:18:35.913Z,98346.61
2018-05-07T11:21:04.173Z,98352.44
2018-05-07T11:23:32.417Z,98347.91
2018-05-07T11:26:01.544Z,98345.69
2018-05-07T11:28:29.792Z,98348.16
2018-05-07T11:30:58.829Z,98347.03
2018-05-07T11:33:27.187Z,98348.03
2018-05-07T11:35:55.435Z,98331.53
2018-05-07T11:38:24.566Z,98335.00
2018-05-07T11:40:52.837Z,98329.82
2018-05-07T11:43:21.112Z,98332.94
2018-05-07T11:45:49.388Z,98325.92
2018-05-07T11:48:17.678Z,98332.41
2018-05-07T11:50:45.936Z,98322.02
2018-05-07T11:53:14.245Z,98323.97
2018-05-07T11:55:43.234Z,98320.80
2018-05-07T11:58:11.484Z,98323.70
2018-05-07T12:00:39.777Z,98320.55
2018-05-07T12:03:08.049Z,98320.55
2018-05-07T12:05:36.325Z,98318.02
2018-05-07T12:08:04.596Z,98314.39
2018-05-07T12:10:32.874Z,98315.27
2018-05-07T12:13:01.125Z,98309.41
2018-05-07T12:15:30.152Z,98302.84
2018-05-07T12:17:58.405Z,98301.20
2018-05-07T12:20:26.661Z,98298.77
2018-05-07T12:22:54.910Z,98303.84
2018-05-07T12:25:23.178Z,98299.63
2018-05-07T12:27:51.560Z,98287.75
2018-05-07T12:30:19.820Z,98292.38
2018-05-07T12:32:48.171Z,98291.65
2018-05-07T12:35:16.460Z,98292.56
2018-05-07T12:37:44.773Z,98289.18
2018-05-07T12:40:13.104Z,98284.64
2018-05-07T12:42:41.395Z,98279.31
2018-05-07T12:45:09.645Z,98283.81
2018-05-07T12:47:38.757Z,98278.69
2018-05-07T12:50:07.000Z,98274.09
2018-05-07T12:52:36.161Z,98269.88
2018-05-07T12:55:04.385Z,98265.86
2018-05-07T12:57:33.402Z,98264.09
2018-05-07T13:00:01.640Z,98261.24
2018-05-07T13:02:29.944Z,98267.27
2018-05-07T13:04:58.230Z,98257.89
2018-05-07T13:07:26.472Z,98252.25
2018-05-07T13:09:55.592Z,98253.63
2018-05-07T13:12:23.844Z,98247.51
2018-05-07T13:14:52.960Z,98252.34
2018-05-07T13:17:21.230Z,98251.51
2018-05-07T13:19:50.243Z,98251.82
2018-05-07T13:22:18.489Z,98243.09
2018-05-07T13:24:47.648Z,98232.74
2018-05-07T13:27:15.852Z,98230.78
2018-05-07T13:29:44.886Z,98224.39
2018-05-07T13:32:13.148Z,98224.94
2018-05-07T13:34:41.409Z,98226.91
2018-05-07T13:37:10.420Z,98215.23
2018-05-07T13:39:38.688Z,98210.91
2018-05-07T13:42:07.784Z,98216.80
2018-05-07T13:44:36.100Z,98206.44
2018-05-07T13:47:04.453Z,98213.88
2018-05-07T13:49:32.712Z,98205.62
2018-05-07T13:52:01.015Z,98203.77
2018-05-07T13:54:29.285Z,98199.67
2018-05-07T13:56:57.546Z,98198.00
2018-05-07T13:59:26.648Z,98203.24
2018-05-07T14:01:54.916Z,98196.77
2018-05-07T14:04:23.164Z,98197.92
2018-05-07T14:06:51.429Z,98198.80
2018-05-07T14:09:19.708Z,98199.02
2018-05-07T14:11:48.056Z,98194.09
2018-05-07T14:14:16.322Z,98194.59
2018-05-07T14:16:44.641Z,98196.03
2018-05-07T14:19:12.866Z,98194.69
2018-05-07T14:21:41.127Z,98187.23
2018-05-07T14:24:09.388Z,98187.84
2018-05-07T14:26:38.528Z,98193.58
2018-05-07T14:29:06.788Z,98189.05
2018-05-07T14:31:35.061Z,98183.09
2018-05-07T14:34:03.309Z,98178.61
2018-05-07T14:36:32.429Z,98180.62
2018-05-07T14:39:00.704Z,98181.66
2018-05-07T14:41:29.034Z,98178.05
2018-05-07T14:43:57.261Z,98171.76
2018-05-07T14:46:25.545Z,98175.83
2018-05-07T14:48:53.816Z,98172.95
2018-05-07T14:51:22.110Z,98160.91
2018-05-07T14:53:50.359Z,98165.77
2018-05-07T14:56:18.622Z,98159.30
2018-05-07T14:58:47.802Z,98159.58
2018-05-07T15:01:15.989Z,98160.22
2018-05-07T15:03:45.005Z,98154.20
2018-05-07T15:06:13.306Z,98157.23
2018-05-07T15:08:41.628Z,98147.93
2018-05-07T15:11:09.949Z,98151.88
2018-05-07T15:13:38.267Z,98145.50
2018-05-07T15:16:07.355Z,98139.41
2018-05-07T15:18:35.669Z,98144.23
2018-05-07T15:21:04.797Z,98145.59
2018-05-07T15:23:33.062Z,98134.06
2018-05-07T15:26:01.321Z,98141.11
2018-05-07T15:28:30.429Z,98137.70
2018-05-07T15:30:58.728Z,98132.61
2018-05-07T15:33:26.989Z,98133.63
2018-05-07T15:35:55.276Z,98131.66
2018-05-07T15:38:23.545Z,98134.51
2018-05-07T15:40:51.798Z,98128.93
2018-05-07T15:43:20.818Z,98130.03
2018-05-07T15:45:49.089Z,98126.04
2018-05-07T15:48:17.355Z,98127.19
2018-05-07T15:50:45.612Z,98123.44
2018-05-07T15:53:14.644Z,98124.84
2018-05-07T15:55:42.905Z,98132.27
2018-05-07T15:58:11.152Z,98122.32
2018-05-07T16:00:40.181Z,98129.56
2018-05-07T16:03:08.586Z,98128.02
2018-05-07T16:05:37.461Z,98128.79
2018-05-07T16:08:06.562Z,98124.78
2018-05-07T16:10:34.886Z,98126.36
2018-05-07T16:13:03.940Z,98122.30
2018-05-07T16:15:32.302Z,98118.91
2018-05-07T16:18:00.592Z,98123.18
2018-05-07T16:20:28.861Z,98115.30
2018-05-07T16:22:57.125Z,98114.31
2018-05-07T16:25:25.384Z,98116.34
2018-05-07T16:27:53.688Z,98115.69
2018-05-07T16:30:21.953Z,98115.16
2018-05-07T16:32:50.208Z,98107.17
2018-05-07T16:35:19.255Z,98109.66
2018-05-07T16:37:47.517Z,98106.33
2018-05-07T16:40:15.825Z,98113.17
2018-05-07T16:42:44.047Z,98106.64
2018-05-07T16:45:12.296Z,98105.70
2018-05-07T16:47:41.334Z,98103.06
2018-05-07T16:50:09.588Z,98106.41
2018-05-07T16:52:37.958Z,98100.91
2018-05-07T16:55:06.228Z,98095.18
2018-05-07T16:57:35.317Z,98089.90
2018-05-07T17:00:03.521Z,98090.81
2018-05-07T17:02:31.761Z,98084.65
2018-05-07T17:05:00.781Z,98085.19
2018-05-07T17:07:29.045Z,98086.44
2018-05-07T17:09:58.071Z,98082.83
2018-05-07T17:12:26.309Z,98078.55
2018-05-07T17:14:55.348Z,98085.46
2018-05-07T17:17:23.604Z,98077.22
2018-05-07T17:19:51.881Z,98082.36
2018-05-07T17:22:20.153Z,98077.84
2018-05-07T17:24:48.428Z,98077.41
2018-05-07T17:27:16.680Z,98076.11
2018-05-07T17:29:45.800Z,98075.05
2018-05-07T17:32:14.049Z,98075.37
2018-05-07T17:34:43.183Z,98079.61
2018-05-07T17:37:11.558Z,98081.97
2018-05-07T17:39:39.817Z,98077.73
2018-05-07T17:42:08.078Z,98083.08
2018-05-07T17:44:54.677Z,98086.19
2018-05-07T17:47:40.742Z,98074.14
2018-05-07T17:50:09.190Z,98081.34
2018-05-07T17:52:37.446Z,98081.45
2018-05-07T17:55:06.501Z,98083.87
2018-05-07T17:57:34.772Z,98084.18
2018-05-07T18:00:03.143Z,98086.06
2018-05-07T18:02:31.381Z,98087.26
2018-05-07T18:04:59.668Z,98085.47
2018-05-07T18:07:27.942Z,98087.62
2018-05-07T18:09:56.249Z,98087.84
2018-05-07T18:12:24.600Z,98079.92
2018-05-07T18:14:52.858Z,98072.70
2018-05-07T18:17:21.880Z,98073.21
2018-05-07T18:19:50.150Z,98079.59
2018-05-07T18:22:18.424Z,98079.58
2018-05-07T18:24:46.679Z,98079.58
2018-05-07T18:27:15.718Z,98084.23
2018-05-07T18:29:43.978Z,98076.59
2018-05-07T18:32:12.261Z,98081.67
2018-05-07T18:34:42.279Z,98084.31
2018-05-07T18:37:10.554Z,98083.95
2018-05-07T18:39:38.818Z,98090.09
2018-05-07T18:42:07.091Z,98087.75
2018-05-07T18:44:35.356Z,98093.53
2018-05-07T18:47:03.682Z,98086.55
2018-05-07T18:49:32.196Z,98088.62
2018-05-07T18:52:01.292Z,98087.85
2018-05-07T18:54:30.952Z,98091.38
2018-05-07T18:57:00.981Z,98097.46
2018-05-07T18:59:30.781Z,98098.04
2018-05-07T19:02:00.688Z,98102.48
2018-05-07T19:04:30.629Z,98108.16
2018-05-07T19:07:01.127Z,98113.03
2018-05-07T19:09:30.988Z,98111.19
2018-05-07T19:12:00.993Z,98115.95
2018-05-07T19:14:30.926Z,98119.31
2018-05-07T19:17:00.897Z,98114.47
2018-05-07T19:19:30.373Z,98120.89
2018-05-07T19:22:01.190Z,98122.20
2018-05-07T19:24:31.012Z,98127.60
2018-05-07T19:27:00.886Z,98122.10
2018-05-07T19:29:30.681Z,98131.98
2018-05-07T19:32:00.864Z,98129.21
2018-05-07T19:34:30.734Z,98135.28
2018-05-07T19:37:00.700Z,98137.72
2018-05-07T19:39:31.907Z,98137.77
2018-05-07T19:42:01.919Z,98133.62
2018-05-07T19:44:31.783Z,98137.08
2018-05-07T19:47:01.853Z,98132.84
2018-05-07T19:49:31.652Z,98132.25
2018-05-07T19:52:01.552Z,98140.05
2018-05-07T19:54:31.708Z,98134.55
2018-05-07T19:57:01.814Z,98131.45
2018-05-07T19:59:31.754Z,98131.98
2018-05-07T20:02:01.679Z,98131.80
2018-05-07T20:04:31.324Z,98127.44
2018-05-07T20:07:02.052Z,98127.40
2018-05-07T20:09:31.862Z,98127.83
2018-05-07T20:12:02.874Z,98125.60
2018-05-07T20:14:32.688Z,98126.29
2018-05-07T20:17:02.604Z,98124.30
2018-05-07T20:19:33.381Z,98120.06
2018-05-07T20:22:03.453Z,98118.90
2018-05-07T20:24:33.255Z,98122.45
2018-05-07T20:27:03.040Z,98120.43
2018-05-07T20:29:32.718Z,98119.16
2018-05-07T20:32:02.554Z,98122.83
2018-05-07T20:34:32.397Z,98115.31
2018-05-07T20:37:02.288Z,98118.86
2018-05-07T20:39:32.241Z,98115.46
2018-05-07T20:42:01.865Z,98123.41
2018-05-07T20:44:32.074Z,98120.95
2018-05-07T20:47:00.970Z,98121.26
2018-05-07T20:49:29.874Z,98119.34
2018-05-07T20:51:58.349Z,98115.30
2018-05-07T20:54:26.725Z,98117.23
2018-05-07T20:56:55.004Z,98106.30
2018-05-07T20:59:23.357Z,98109.80
2018-05-07T21:01:51.972Z,98113.38
2018-05-07T21:04:20.264Z,98105.19
2018-05-07T21:06:48.621Z,98099.30
2018-05-07T21:09:16.887Z,98094.36
2018-05-07T21:11:45.168Z,98099.14
2018-05-07T21:14:13.449Z,98095.50
2018-05-07T21:16:41.730Z,98094.81
2018-05-07T21:19:09.978Z,98096.98
2018-05-07T21:21:39.009Z,98090.50
2018-05-07T21:24:07.372Z,98094.16
2018-05-07T21:26:35.626Z,98089.44
2018-05-07T21:29:04.724Z,98086.67
2018-05-07T21:31:33.752Z,98081.01
2018-05-07T21:34:02.007Z,98085.97
2018-05-07T21:36:30.300Z,98081.07
2018-05-07T21:38:59.292Z,98083.31
2018-05-07T21:41:27.629Z,98084.41
2018-05-07T21:43:56.749Z,98081.25
2018-05-07T21:46:25.041Z,98087.50
2018-05-07T21:48:53.309Z,98079.77
2018-05-07T21:51:21.584Z,98080.27
2018-05-07T21:53:49.857Z,98081.40
2018-05-07T21:56:18.108Z,98084.31
2018-05-07T21:58:47.229Z,98087.13
2018-05-07T22:01:15.504Z,98089.32
2018-05-07T22:03:43.758Z,98094.15
2018-05-07T22:06:12.792Z,98085.50
2018-05-07T22:08:41.049Z,98084.34
2018-05-07T22:11:09.304Z,98083.70
2018-05-07T22:13:38.316Z,98082.86
2018-05-07T22:16:06.579Z,98074.05
2018-05-07T22:18:35.693Z,98076.09
2018-05-07T22:21:03.946Z,98078.69
2018-05-07T22:23:33.004Z,98074.70
2018-05-07T22:26:01.261Z,98078.30
2018-05-07T22:28:29.617Z,98072.58
2018-05-07T22:30:57.889Z,98078.80
2018-05-07T22:33:26.141Z,98079.61
2018-05-07T22:35:55.165Z,98073.06
2018-05-07T22:38:23.428Z,98079.17
2018-05-07T22:40:51.679Z,98078.89
2018-05-07T22:43:19.924Z,98075.06
2018-05-07T22:45:48.192Z,98072.53
2018-05-07T22:48:16.480Z,98065.50
2018-05-07T22:50:44.732Z,98067.80
2018-05-07T22:53:13.004Z,98064.34
2018-05-07T22:55:41.265Z,98069.58
2018-05-07T22:58:09.554Z,98066.73
2018-05-07T23:00:37.917Z,98066.36
2018-05-07T23:03:06.933Z,98067.52
2018-05-07T23:05:35.185Z,98067.01
2018-05-07T23:08:04.234Z,98068.03
2018-05-07T23:10:32.590Z,98071.88
2018-05-07T23:13:00.844Z,98070.98
2018-05-07T23:15:29.217Z,98067.08
2018-05-07T23:17:57.476Z,98066.23
2018-05-07T23:20:26.501Z,98065.75
2018-05-07T23:22:54.774Z,98068.05
2018-05-07T23:25:23.040Z,98066.72
2018-05-07T23:27:51.337Z,98066.73
2018-05-07T23:30:19.605Z,98062.08
2018-05-07T23:32:47.852Z,98065.75
2018-05-07T23:35:16.877Z,98065.67
2018-05-07T23:37:45.245Z,98067.84
2018-05-07T23:40:13.526Z,98065.30
2018-05-07T23:42:41.778Z,98061.59
2018-05-07T23:45:10.816Z,98056.44
2018-05-07T23:47:39.170Z,98053.55
2018-05-07T23:50:07.498Z,98054.16
2018-05-07T23:52:35.766Z,98056.27
2018-05-07T23:55:04.020Z,98057.84
2018-05-07T23:57:32.278Z,98054.97
